Time;durP1;ratioP1;P1;durP2;ratioP2;P2;SDS_P1;SDS_P2;PMS_P1;PMS_P2;Temp;Humidity;BMP_temperature;BMP_pressure;BME280_temperature;BME280_humidity;BME280_pressure;Samples;Min_cycle;Max_cycle;Signal;HPM_P1;HPM_P2
2021/01/14 00:01:36;;;;;;;42.22;23.63;;;;;;;;;;5031738;28;20480;-88
2021/01/14 00:07:25;;;;;;;45.33;25.45;;;;;;;;;;5000267;28;20046;-92
2021/01/14 00:09:51;;;;;;;45.78;25.00;;;;;;;;;;5000117;28;20029;-91
2021/01/14 00:12:18;;;;;;;47.70;25.63;;;;;;;;;;5000252;28;20034;-90
2021/01/14 00:14:44;;;;;;;46.33;24.33;;;;;;;;;;4999169;28;20030;-93
2021/01/14 00:17:10;;;;;;;47.60;26.25;;;;;;;;;;4998712;28;20112;-89
2021/01/14 00:22:39;;;;;;;43.40;23.92;;;;;;;;;;5019324;28;20100;-90
2021/01/14 00:25:07;;;;;;;46.17;25.58;;;;;;;;;;5019436;28;20025;-89
2021/01/14 00:27:33;;;;;;;48.20;25.77;;;;;;;;;;5017902;28;20097;-90
2021/01/14 00:29:59;;;;;;;45.67;24.92;;;;;;;;;;5019562;28;20105;-90
2021/01/14 00:32:25;;;;;;;42.88;23.70;;;;;;;;;;5017724;28;20141;-91
2021/01/14 00:34:52;;;;;;;45.05;25.45;;;;;;;;;;5019481;28;20055;-90
2021/01/14 00:40:04;;;;;;;46.22;24.60;;;;;;;;;;5019568;28;20340;-88
2021/01/14 00:42:30;;;;;;;48.38;25.15;;;;;;;;;;5019076;28;20034;-89
2021/01/14 00:44:56;;;;;;;58.92;26.35;;;;;;;;;;5019058;28;20053;-89
2021/01/14 00:47:22;;;;;;;44.50;24.70;;;;;;;;;;5018750;28;20412;-88
2021/01/14 00:49:49;;;;;;;45.38;23.73;;;;;;;;;;5019270;28;20038;-88
2021/01/14 00:52:15;;;;;;;46.30;24.13;;;;;;;;;;5018562;28;20181;-88
2021/01/14 00:54:41;;;;;;;42.10;24.55;;;;;;;;;;5018923;28;20022;-88
2021/01/14 00:57:08;;;;;;;45.10;23.92;;;;;;;;;;5018643;28;20029;-88
2021/01/14 00:59:35;;;;;;;45.83;24.48;;;;;;;;;;5017828;28;20336;-89
2021/01/14 01:02:01;;;;;;;41.35;22.77;;;;;;;;;;5012177;28;20023;-88
2021/01/14 01:04:27;;;;;;;46.95;24.02;;;;;;;;;;4999029;28;20026;-89
2021/01/14 01:06:53;;;;;;;46.42;23.83;;;;;;;;;;4998129;28;20030;-91
2021/01/14 01:09:20;;;;;;;46.78;23.95;;;;;;;;;;4998944;28;20029;-92
2021/01/14 01:11:47;;;;;;;48.17;24.25;;;;;;;;;;4998818;28;20121;-92
2021/01/14 01:14:13;;;;;;;45.17;23.83;;;;;;;;;;4998754;28;20029;-92
2021/01/14 01:16:39;;;;;;;48.33;23.95;;;;;;;;;;4999128;28;20014;-92
2021/01/14 01:19:24;;;;;;;42.95;22.75;;;;;;;;;;4998720;28;20058;-90
2021/01/14 01:21:50;;;;;;;42.90;23.52;;;;;;;;;;4998713;28;20047;-90
2021/01/14 01:24:16;;;;;;;42.03;23.25;;;;;;;;;;5001857;28;20038;-88
2021/01/14 01:26:42;;;;;;;47.20;23.40;;;;;;;;;;5018095;28;20022;-91
2021/01/14 01:29:09;;;;;;;39.00;21.27;;;;;;;;;;5019927;28;20021;-94
2021/01/14 01:31:39;;;;;;;36.35;20.20;;;;;;;;;;5019894;28;20053;-94
2021/01/14 01:34:06;;;;;;;44.17;22.35;;;;;;;;;;5020007;28;20026;-95
2021/01/14 01:36:32;;;;;;;39.95;20.55;;;;;;;;;;5017599;28;20109;-90
2021/01/14 01:38:59;;;;;;;38.08;19.80;;;;;;;;;;5018300;28;20042;-91
2021/01/14 01:41:25;;;;;;;41.03;21.48;;;;;;;;;;5017825;28;20026;-89
2021/01/14 01:43:51;;;;;;;39.63;20.55;;;;;;;;;;5018331;28;20034;-89
2021/01/14 01:46:24;;;;;;;38.20;21.05;;;;;;;;;;5018270;28;20026;-89
2021/01/14 02:01:04;;;;;;;35.35;19.60;;;;;;;;;;5017944;28;20324;-90
2021/01/14 02:03:40;;;;;;;37.30;20.33;;;;;;;;;;5018077;28;20316;-91
2021/01/14 02:06:10;;;;;;;33.83;19.95;;;;;;;;;;5017782;28;20022;-90
2021/01/14 02:08:36;;;;;;;38.58;19.58;;;;;;;;;;5017579;28;20113;-90
2021/01/14 02:11:22;;;;;;;35.25;20.60;;;;;;;;;;5017759;28;20029;-90
2021/01/14 02:14:00;;;;;;;37.75;19.50;;;;;;;;;;4977245;28;20039;-90
2021/01/14 02:16:27;;;;;;;43.80;21.55;;;;;;;;;;4977215;28;20114;-89
2021/01/14 02:21:59;;;;;;;58.78;24.02;;;;;;;;;;4977292;28;20065;-92
2021/01/14 02:24:30;;;;;;;65.88;26.33;;;;;;;;;;4976927;28;20079;-93
2021/01/14 02:26:57;;;;;;;61.90;25.10;;;;;;;;;;4976820;28;20035;-93
2021/01/14 02:29:23;;;;;;;61.20;22.95;;;;;;;;;;4977041;28;20027;-93
2021/01/14 02:31:49;;;;;;;53.08;24.45;;;;;;;;;;4960855;28;20027;-92
2021/01/14 02:34:16;;;;;;;52.72;22.15;;;;;;;;;;4976888;28;20031;-92
2021/01/14 02:36:42;;;;;;;56.78;22.45;;;;;;;;;;4976973;28;20023;-93
2021/01/14 02:39:08;;;;;;;58.53;24.63;;;;;;;;;;4960694;28;20055;-92
2021/01/14 02:41:34;;;;;;;55.58;23.67;;;;;;;;;;4976750;28;20089;-92
2021/01/14 02:44:00;;;;;;;48.10;20.27;;;;;;;;;;4979716;28;20035;-93
2021/01/14 02:46:27;;;;;;;41.20;18.00;;;;;;;;;;4980593;28;20353;-92
2021/01/14 02:51:57;;;;;;;29.33;15.38;;;;;;;;;;5018341;28;20029;-92
2021/01/14 02:54:24;;;;;;;28.38;14.93;;;;;;;;;;5021456;28;20088;-91
2021/01/14 02:56:50;;;;;;;31.52;16.27;;;;;;;;;;5021150;28;20018;-91
2021/01/14 02:59:16;;;;;;;32.17;15.23;;;;;;;;;;5021228;28;20018;-91
2021/01/14 03:01:42;;;;;;;31.88;14.63;;;;;;;;;;5021208;28;20032;-91
2021/01/14 03:04:26;;;;;;;33.33;14.80;;;;;;;;;;5021138;28;20046;-93
2021/01/14 03:06:52;;;;;;;35.83;14.77;;;;;;;;;;5020998;28;20049;-92
2021/01/14 03:09:19;;;;;;;37.47;16.40;;;;;;;;;;5019955;28;20022;-93
2021/01/14 03:11:45;;;;;;;32.55;14.65;;;;;;;;;;5019702;28;20065;-92
2021/01/14 03:14:11;;;;;;;28.67;14.73;;;;;;;;;;5019621;28;20075;-91
2021/01/14 03:16:38;;;;;;;32.75;13.73;;;;;;;;;;5020749;28;20396;-91
2021/01/14 03:19:05;;;;;;;22.02;11.57;;;;;;;;;;5019687;28;20054;-89
2021/01/14 03:21:31;;;;;;;28.38;13.20;;;;;;;;;;5020561;28;20026;-89
2021/01/14 03:23:57;;;;;;;21.02;11.38;;;;;;;;;;5020317;28;20433;-90
2021/01/14 03:26:23;;;;;;;21.98;11.13;;;;;;;;;;5020461;28;20060;-90
2021/01/14 03:28:50;;;;;;;21.30;11.05;;;;;;;;;;5020603;28;20061;-89
2021/01/14 03:31:17;;;;;;;21.98;10.20;;;;;;;;;;5020851;28;20022;-91
2021/01/14 03:34:01;;;;;;;21.92;10.75;;;;;;;;;;5020346;28;20029;-91
2021/01/14 03:36:32;;;;;;;20.35;10.55;;;;;;;;;;5020149;28;20050;-92
2021/01/14 03:38:59;;;;;;;31.02;12.65;;;;;;;;;;5020170;28;20030;-90
2021/01/14 03:41:25;;;;;;;23.52;11.48;;;;;;;;;;5020298;28;20022;-89
2021/01/14 03:43:51;;;;;;;18.67;10.13;;;;;;;;;;5020397;28;20079;-92
2021/01/14 03:46:20;;;;;;;20.10;10.55;;;;;;;;;;5019960;28;20025;-91
2021/01/14 03:49:23;;;;;;;25.25;12.15;;;;;;;;;;5020354;28;20026;-93
2021/01/14 03:51:49;;;;;;;;;;;;;;;;;;5019233;28;20018;-92
2021/01/14 03:54:21;;;;;;;20.67;10.38;;;;;;;;;;5018987;28;19905;-92
2021/01/14 03:56:47;;;;;;;17.35;8.73;;;;;;;;;;5020063;28;20053;-93
2021/01/14 03:59:15;;;;;;;16.77;8.48;;;;;;;;;;5018933;28;20022;-95
2021/01/14 04:01:44;;;;;;;18.92;8.93;;;;;;;;;;5018646;28;20439;-94
2021/01/14 04:07:14;;;;;;;21.75;10.57;;;;;;;;;;5019836;28;20037;-92
2021/01/14 04:09:41;;;;;;;30.48;12.85;;;;;;;;;;5019653;28;20053;-92
2021/01/14 04:12:08;;;;;;;25.98;12.20;;;;;;;;;;5019688;28;20380;-92
2021/01/14 04:14:34;;;;;;;30.77;13.98;;;;;;;;;;5018490;28;20041;-91
2021/01/14 04:17:00;;;;;;;35.40;14.95;;;;;;;;;;5019835;28;20060;-91
2021/01/14 04:23:05;;;;;;;34.35;15.63;;;;;;;;;;5015725;28;20037;-90
2021/01/14 04:25:32;;;;;;;32.35;15.48;;;;;;;;;;5019172;28;20046;-90
2021/01/14 04:28:01;;;;;;;29.30;14.10;;;;;;;;;;5019517;28;20041;-90
2021/01/14 04:30:28;;;;;;;31.45;13.93;;;;;;;;;;5019226;28;20045;-90
2021/01/14 04:33:11;;;;;;;23.73;12.40;;;;;;;;;;5018340;28;20057;-91
2021/01/14 04:38:22;;;;;;;22.05;11.40;;;;;;;;;;5019109;28;19912;-90
2021/01/14 04:40:55;;;;;;;24.98;11.82;;;;;;;;;;5019036;28;20018;-90
2021/01/14 04:43:22;;;;;;;20.42;11.57;;;;;;;;;;5019274;28;20097;-90
2021/01/14 04:45:49;;;;;;;24.38;11.90;;;;;;;;;;5019362;28;20092;-90
2021/01/14 04:48:18;;;;;;;23.65;10.98;;;;;;;;;;5018866;28;20030;-91
2021/01/14 04:50:45;;;;;;;21.50;11.52;;;;;;;;;;5019115;28;20022;-91
2021/01/14 04:53:14;;;;;;;27.17;11.40;;;;;;;;;;5018946;28;20014;-90
2021/01/14 04:55:44;;;;;;;20.13;10.32;;;;;;;;;;5018016;28;20026;-91
2021/01/14 04:58:15;;;;;;;21.55;9.23;;;;;;;;;;5018997;28;20042;-89
2021/01/14 05:00:42;;;;;;;52.40;16.23;;;;;;;;;;5017901;28;20386;-90
2021/01/14 05:03:14;;;;;;;43.72;15.05;;;;;;;;;;5018886;28;20036;-91
2021/01/14 05:08:43;;;;;;;;;;;;;;;;;;5019098;28;20335;-91
2021/01/14 05:11:11;;;;;;;28.80;11.27;;;;;;;;;;5017662;28;20003;-91
2021/01/14 05:13:38;;;;;;;35.97;12.38;;;;;;;;;;5018490;28;20409;-90
2021/01/14 05:16:04;;;;;;;28.45;10.95;;;;;;;;;;5018485;28;20036;-94
2021/01/14 05:18:30;;;;;;;24.50;9.60;;;;;;;;;;5018408;28;20128;-95
2021/01/14 05:26:49;;;;;;;16.55;8.00;;;;;;;;;;5071472;23;20064;-94
2021/01/14 05:29:20;;;;;;;19.58;8.50;;;;;;;;;;5037105;28;20033;-94
2021/01/14 05:31:47;;;;;;;22.65;9.43;;;;;;;;;;5038423;28;20021;-94
2021/01/14 05:34:14;;;;;;;26.00;11.45;;;;;;;;;;5038146;28;20014;-94
2021/01/14 05:36:52;;;;;;;30.88;14.10;;;;;;;;;;5038175;28;20044;-94
2021/01/14 05:39:19;;;;;;;28.38;11.10;;;;;;;;;;5036901;28;20052;-96
2021/01/14 05:41:45;;;;;;;26.75;14.05;;;;;;;;;;5037810;28;20026;-95
2021/01/14 05:44:11;;;;;;;24.95;11.55;;;;;;;;;;5037008;28;20071;-92
2021/01/14 05:46:37;;;;;;;25.50;12.85;;;;;;;;;;5037748;28;20033;-91
2021/01/14 05:49:31;;;;;;;35.50;18.67;;;;;;;;;;5037967;28;20083;-91
2021/01/14 05:51:58;;;;;;;45.05;26.55;;;;;;;;;;5037617;28;20045;-92
2021/01/14 05:54:30;;;;;;;28.35;15.80;;;;;;;;;;5036928;28;20013;-94
2021/01/14 05:57:00;;;;;;;39.95;19.58;;;;;;;;;;5037391;28;20071;-91
2021/01/14 05:59:39;;;;;;;35.00;18.77;;;;;;;;;;5037587;28;20422;-93
2021/01/14 06:02:05;;;;;;;41.08;20.17;;;;;;;;;;5037555;28;20028;-92
2021/01/14 06:04:31;;;;;;;50.15;27.73;;;;;;;;;;5037500;28;20033;-92
2021/01/14 06:07:02;;;;;;;49.30;26.00;;;;;;;;;;5037764;28;20029;-92
2021/01/14 06:09:28;;;;;;;47.85;24.45;;;;;;;;;;5037555;28;20021;-93
2021/01/14 06:12:08;;;;;;;178.65;64.18;;;;;;;;;;5037450;28;20022;-93
2021/01/14 06:14:34;;;;;;;395.10;109.97;;;;;;;;;;5037511;28;20446;-91
2021/01/14 06:17:01;;;;;;;99.40;36.53;;;;;;;;;;5037714;28;20030;-92
2021/01/14 06:19:28;;;;;;;109.75;39.45;;;;;;;;;;5041955;28;20044;-94
2021/01/14 06:21:57;;;;;;;181.75;57.83;;;;;;;;;;5041824;28;20029;-93
2021/01/14 06:24:27;;;;;;;111.13;38.72;;;;;;;;;;5041557;28;20029;-93
2021/01/14 06:26:54;;;;;;;83.20;33.83;;;;;;;;;;5041181;28;20045;-90
2021/01/14 06:29:21;;;;;;;71.75;35.78;;;;;;;;;;5041637;28;20018;-91
2021/01/14 06:31:47;;;;;;;69.07;32.10;;;;;;;;;;5041506;28;20060;-91
2021/01/14 06:34:15;;;;;;;75.90;35.25;;;;;;;;;;5040422;28;20060;-90
2021/01/14 06:36:41;;;;;;;133.18;57.25;;;;;;;;;;5041405;28;20021;-90
2021/01/14 06:39:17;;;;;;;275.25;114.88;;;;;;;;;;5041519;28;20100;-90
2021/01/14 06:41:44;;;;;;;279.92;116.53;;;;;;;;;;5040273;28;20429;-90
2021/01/14 06:44:12;;;;;;;168.10;76.90;;;;;;;;;;5041496;28;20079;-91
2021/01/14 06:46:39;;;;;;;111.38;50.45;;;;;;;;;;5041295;28;20025;-89
2021/01/14 06:49:08;;;;;;;77.10;32.75;;;;;;;;;;5041076;28;20311;-89
2021/01/14 06:51:53;;;;;;;63.95;25.90;;;;;;;;;;5040347;28;20104;-92
2021/01/14 06:54:19;;;;;;;93.60;33.15;;;;;;;;;;5040841;28;20033;-91
2021/01/14 06:56:55;;;;;;;52.58;22.17;;;;;;;;;;5040827;28;20026;-91
2021/01/14 06:59:22;;;;;;;103.28;37.75;;;;;;;;;;5040165;28;20030;-91
2021/01/14 07:02:09;;;;;;;66.28;27.95;;;;;;;;;;5040616;28;20049;-90
2021/01/14 07:07:48;;;;;;;56.17;23.08;;;;;;;;;;4980173;28;20042;-90
2021/01/14 07:10:17;;;;;;;117.32;50.45;;;;;;;;;;4964044;28;20147;-91
2021/01/14 07:12:45;;;;;;;70.15;30.40;;;;;;;;;;4980130;28;20414;-91
2021/01/14 07:15:12;;;;;;;76.38;32.08;;;;;;;;;;4980165;28;20035;-92
2021/01/14 07:17:39;;;;;;;119.82;51.47;;;;;;;;;;4980041;28;20042;-93
2021/01/14 07:20:12;;;;;;;115.53;48.63;;;;;;;;;;4963927;28;20090;-94
2021/01/14 07:22:53;;;;;;;93.45;38.15;;;;;;;;;;4979900;28;20030;-93
2021/01/14 07:25:20;;;;;;;103.13;38.08;;;;;;;;;;4979689;28;20049;-91
2021/01/14 07:27:48;;;;;;;65.38;28.13;;;;;;;;;;4979723;28;20038;-89
2021/01/14 07:30:17;;;;;;;28.13;14.10;;;;;;;;;;4979555;28;20050;-92
2021/01/14 07:32:56;;;;;;;20.33;11.30;;;;;;;;;;4979822;28;20019;-92
2021/01/14 07:35:59;;;;;;;22.20;11.10;;;;;;;;;;4963575;28;20039;-94
2021/01/14 07:38:25;;;;;;;26.63;12.32;;;;;;;;;;4979575;28;20102;-92
2021/01/14 07:40:54;;;;;;;34.88;14.60;;;;;;;;;;4973588;28;20033;-91
2021/01/14 07:43:30;;;;;;;30.33;11.82;;;;;;;;;;5039781;28;20025;-93
2021/01/14 07:46:12;;;;;;;48.65;15.18;;;;;;;;;;5040115;28;20025;-92
2021/01/14 07:48:38;;;;;;;46.20;15.23;;;;;;;;;;5039925;28;20454;-93
2021/01/14 07:51:42;;;;;;;46.53;13.48;;;;;;;;;;5038969;28;20087;-92
2021/01/14 07:54:09;;;;;;;29.00;10.45;;;;;;;;;;5038862;28;20301;-93
2021/01/14 07:56:55;;;;;;;32.60;11.95;;;;;;;;;;5039738;28;20033;-92
2021/01/14 07:59:28;;;;;;;27.73;11.45;;;;;;;;;;5039689;28;20075;-95
2021/01/14 08:02:01;;;;;;;32.00;11.70;;;;;;;;;;5040093;28;20049;-94
2021/01/14 08:04:27;;;;;;;45.55;16.45;;;;;;;;;;5039863;28;20112;-94
2021/01/14 08:06:53;;;;;;;60.25;19.85;;;;;;;;;;5039507;28;20041;-94
2021/01/14 08:09:20;;;;;;;26.95;13.15;;;;;;;;;;5039819;28;20029;-94
2021/01/14 08:11:46;;;;;;;23.23;10.98;;;;;;;;;;5039350;28;20025;-96
2021/01/14 08:14:20;;;;;;;31.08;16.45;;;;;;;;;;5039184;28;20034;-96
2021/01/14 08:16:58;;;;;;;31.48;16.02;;;;;;;;;;5041436;28;20051;-96
2021/01/14 08:19:31;;;;;;;40.05;18.02;;;;;;;;;;5043139;28;20080;-95
2021/01/14 08:24:45;;;;;;;51.65;20.85;;;;;;;;;;5039748;28;20369;-90
2021/01/14 08:27:16;;;;;;;37.92;18.15;;;;;;;;;;5038361;28;20107;-94
2021/01/14 08:29:43;;;;;;;33.55;16.77;;;;;;;;;;5039135;28;20116;-92
2021/01/14 08:32:28;;;;;;;30.67;16.35;;;;;;;;;;5039044;28;20408;-93
2021/01/14 08:34:55;;;;;;;33.50;15.48;;;;;;;;;;5039713;28;20100;-90
2021/01/14 08:37:35;;;;;;;38.47;16.50;;;;;;;;;;5039283;28;20293;-90
2021/01/14 08:40:04;;;;;;;42.50;20.17;;;;;;;;;;5038556;28;20033;-92
2021/01/14 08:42:36;;;;;;;46.35;21.58;;;;;;;;;;5039093;28;20025;-92
2021/01/14 08:45:09;;;;;;;39.70;20.27;;;;;;;;;;5039121;28;20366;-92
2021/01/14 08:47:54;;;;;;;43.25;20.00;;;;;;;;;;5038660;28;20029;-92
2021/01/14 08:50:33;;;;;;;39.28;18.13;;;;;;;;;;5037916;28;20017;-91
2021/01/14 08:53:01;;;;;;;44.42;19.50;;;;;;;;;;5038623;28;20037;-92
2021/01/14 08:55:31;;;;;;;46.78;23.20;;;;;;;;;;5037737;28;20026;-90
2021/01/14 08:57:57;;;;;;;46.22;22.77;;;;;;;;;;5038903;28;20033;-91
2021/01/14 09:00:23;;;;;;;39.55;19.42;;;;;;;;;;5038782;28;20375;-90
2021/01/14 09:02:50;;;;;;;57.55;28.75;;;;;;;;;;5039157;28;20025;-91
2021/01/14 09:05:16;;;;;;;31.63;15.82;;;;;;;;;;5038509;28;20021;-91
2021/01/14 09:08:03;;;;;;;34.78;17.25;;;;;;;;;;5038292;28;20065;-90
2021/01/14 09:10:38;;;;;;;33.35;17.63;;;;;;;;;;5038350;28;20018;-91
2021/01/14 09:13:11;;;;;;;30.77;15.60;;;;;;;;;;5038629;28;20048;-90
2021/01/14 09:15:37;;;;;;;28.70;14.80;;;;;;;;;;5038254;28;20470;-95
2021/01/14 09:18:04;;;;;;;30.88;15.93;;;;;;;;;;5037199;28;20021;-91
2021/01/14 09:20:30;;;;;;;28.90;16.10;;;;;;;;;;5038246;28;20036;-92
2021/01/14 09:23:17;;;;;;;26.65;14.27;;;;;;;;;;5038068;28;20040;-94
2021/01/14 09:25:44;;;;;;;27.75;15.50;;;;;;;;;;5038191;28;20053;-93
2021/01/14 09:28:11;;;;;;;31.08;15.38;;;;;;;;;;5037194;28;20117;-94
2021/01/14 09:30:37;;;;;;;32.67;15.88;;;;;;;;;;5038641;28;20117;-94
2021/01/14 09:33:03;;;;;;;34.67;17.05;;;;;;;;;;5040600;28;20109;-93
2021/01/14 09:35:29;;;;;;;43.65;19.58;;;;;;;;;;5039868;28;20022;-90
2021/01/14 09:37:55;;;;;;;50.15;20.17;;;;;;;;;;5038225;28;20029;-91
2021/01/14 09:40:22;;;;;;;36.58;18.13;;;;;;;;;;5037005;28;20441;-92
2021/01/14 09:42:51;;;;;;;47.78;23.35;;;;;;;;;;5037031;28;20137;-91
2021/01/14 09:45:18;;;;;;;36.58;21.00;;;;;;;;;;5038037;28;20366;-93
2021/01/14 09:47:52;;;;;;;46.03;25.70;;;;;;;;;;5037769;28;20427;-89
2021/01/14 09:53:22;;;;;;;93.65;39.72;;;;;;;;;;5037525;28;20131;-76
2021/01/14 09:55:48;;;;;;;252.73;81.65;;;;;;;;;;5036666;28;20060;-76
2021/01/14 09:58:18;;;;;;;199.85;67.70;;;;;;;;;;5036660;28;20537;-75
2021/01/14 10:00:45;;;;;;;223.07;76.57;;;;;;;;;;5035871;28;20060;-75
2021/01/14 10:03:12;;;;;;;125.68;49.25;;;;;;;;;;5035341;28;20095;-76
2021/01/14 10:05:38;;;;;;;188.75;74.88;;;;;;;;;;5034850;28;20036;-75
2021/01/14 10:08:11;;;;;;;167.02;69.43;;;;;;;;;;5036715;28;20025;-76
2021/01/14 10:10:38;;;;;;;86.95;41.78;;;;;;;;;;5036890;28;20108;-76
2021/01/14 10:13:04;;;;;;;81.60;40.75;;;;;;;;;;5037033;28;20041;-76
2021/01/14 10:15:30;;;;;;;60.38;31.17;;;;;;;;;;5036620;28;20479;-76
2021/01/14 10:17:56;;;;;;;41.35;25.52;;;;;;;;;;5036704;28;20032;-76
2021/01/14 10:20:22;;;;;;;46.45;25.98;;;;;;;;;;5036911;28;20047;-75
2021/01/14 10:22:49;;;;;;;51.33;25.30;;;;;;;;;;5036939;28;20032;-76
2021/01/14 10:25:15;;;;;;;58.70;30.13;;;;;;;;;;5036083;28;20328;-76
2021/01/14 10:27:41;;;;;;;80.22;38.90;;;;;;;;;;5035416;28;20052;-76
2021/01/14 10:30:17;;;;;;;69.55;35.60;;;;;;;;;;5035785;28;20022;-77
2021/01/14 10:32:44;;;;;;;68.47;34.20;;;;;;;;;;5029132;28;20353;-76
2021/01/14 10:35:21;;;;;;;57.10;28.20;;;;;;;;;;5036820;28;20024;-76
2021/01/14 10:37:47;;;;;;;54.75;26.08;;;;;;;;;;5036463;28;20025;-76
2021/01/14 10:40:17;;;;;;;49.50;25.63;;;;;;;;;;5036886;28;20029;-76
2021/01/14 10:42:47;;;;;;;38.53;19.58;;;;;;;;;;5036637;28;20049;-76
2021/01/14 10:45:14;;;;;;;47.00;24.30;;;;;;;;;;5036434;28;20067;-77
2021/01/14 10:47:41;;;;;;;48.35;24.42;;;;;;;;;;5036437;28;20026;-76
2021/01/14 10:50:27;;;;;;;50.55;25.90;;;;;;;;;;5035495;28;20034;-76
2021/01/14 10:53:02;;;;;;;42.13;22.90;;;;;;;;;;5036836;28;20017;-77
2021/01/14 10:55:28;;;;;;;42.13;24.15;;;;;;;;;;5035449;28;20120;-76
2021/01/14 10:57:58;;;;;;;50.67;26.65;;;;;;;;;;5036198;28;20026;-76
2021/01/14 11:00:24;;;;;;;58.72;28.80;;;;;;;;;;5036444;28;20021;-76
2021/01/14 11:03:02;;;;;;;44.47;23.15;;;;;;;;;;5036750;28;20026;-77
2021/01/14 11:05:40;;;;;;;48.17;24.67;;;;;;;;;;5040051;28;20033;-76
2021/01/14 11:08:35;;;;;;;66.80;30.40;;;;;;;;;;5039718;28;20030;-77
2021/01/14 11:11:02;;;;;;;57.25;28.33;;;;;;;;;;4998852;28;20077;-76
2021/01/14 11:13:38;;;;;;;64.15;32.90;;;;;;;;;;4998503;28;20070;-75
2021/01/14 11:16:07;;;;;;;56.55;31.02;;;;;;;;;;4998644;28;20034;-76
2021/01/14 11:18:37;;;;;;;125.70;57.83;;;;;;;;;;4997694;28;20030;-76
2021/01/14 11:21:03;;;;;;;59.63;29.20;;;;;;;;;;4981893;28;20034;-76
2021/01/14 11:23:30;;;;;;;67.75;35.50;;;;;;;;;;4998621;28;20041;-75
2021/01/14 11:25:56;;;;;;;53.45;28.20;;;;;;;;;;4998223;28;20058;-76
2021/01/14 11:28:22;;;;;;;55.55;27.05;;;;;;;;;;4981984;28;20313;-75
2021/01/14 11:30:48;;;;;;;46.03;25.23;;;;;;;;;;4998462;28;20057;-76
2021/01/14 11:33:14;;;;;;;55.25;29.00;;;;;;;;;;4981700;28;20038;-74
2021/01/14 11:35:40;;;;;;;35.80;20.40;;;;;;;;;;4998106;28;20439;-74
2021/01/14 11:38:06;;;;;;;23.27;14.35;;;;;;;;;;4981579;28;20069;-78
2021/01/14 11:40:32;;;;;;;20.80;12.35;;;;;;;;;;4998088;28;20042;-74
2021/01/14 11:42:58;;;;;;;20.20;11.77;;;;;;;;;;4998128;28;20074;-74
2021/01/14 11:45:24;;;;;;;24.83;13.90;;;;;;;;;;4998125;28;20031;-74
2021/01/14 11:47:50;;;;;;;18.25;11.10;;;;;;;;;;5013036;28;20058;-74
2021/01/14 11:50:16;;;;;;;11.27;7.70;;;;;;;;;;5019496;28;20018;-74
2021/01/14 11:52:42;;;;;;;10.20;6.30;;;;;;;;;;5019146;28;20025;-76
2021/01/14 11:55:09;;;;;;;28.77;16.08;;;;;;;;;;5018240;28;20038;-76
2021/01/14 11:57:36;;;;;;;22.95;14.88;;;;;;;;;;5018255;28;20038;-76
2021/01/14 12:00:04;;;;;;;13.02;8.52;;;;;;;;;;5019274;28;20037;-76
2021/01/14 12:02:30;;;;;;;10.48;6.18;;;;;;;;;;5035939;28;20022;-76
2021/01/14 12:04:56;;;;;;;11.32;7.22;;;;;;;;;;5038959;28;20052;-76
2021/01/14 12:07:22;;;;;;;12.38;7.75;;;;;;;;;;5054069;28;20068;-76
2021/01/14 12:09:48;;;;;;;9.23;6.47;;;;;;;;;;5039080;28;20064;-75
2021/01/14 12:12:14;;;;;;;11.73;6.82;;;;;;;;;;5039155;28;20029;-75
2021/01/14 12:14:40;;;;;;;10.07;6.25;;;;;;;;;;5038642;28;20457;-76
2021/01/14 12:17:06;;;;;;;7.60;4.72;;;;;;;;;;5053738;28;20033;-75
2021/01/14 12:19:32;;;;;;;10.02;5.72;;;;;;;;;;5038837;28;20021;-76
2021/01/14 12:22:02;;;;;;;7.60;4.10;;;;;;;;;;5038742;28;20029;-76
2021/01/14 12:24:28;;;;;;;12.73;5.53;;;;;;;;;;5038831;28;20037;-76
2021/01/14 12:26:54;;;;;;;9.38;5.57;;;;;;;;;;5038499;28;20049;-77
2021/01/14 12:29:20;;;;;;;7.07;4.15;;;;;;;;;;5038614;28;20022;-76
2021/01/14 12:31:46;;;;;;;6.55;3.58;;;;;;;;;;5038432;28;20028;-76
2021/01/14 12:34:12;;;;;;;7.10;3.58;;;;;;;;;;5038429;28;20032;-76
2021/01/14 12:36:38;;;;;;;6.18;3.60;;;;;;;;;;5038622;28;20075;-76
2021/01/14 12:39:04;;;;;;;17.48;3.03;;;;;;;;;;5038375;28;20026;-76
2021/01/14 12:41:34;;;;;;;6.05;3.63;;;;;;;;;;5038624;28;20029;-76
2021/01/14 12:44:00;;;;;;;8.73;2.50;;;;;;;;;;5038166;28;20026;-76
2021/01/14 12:46:41;;;;;;;5.88;2.20;;;;;;;;;;5038263;28;20025;-77
2021/01/14 12:49:07;;;;;;;14.05;2.55;;;;;;;;;;5053348;28;20423;-77
2021/01/14 12:51:34;;;;;;;4.55;2.38;;;;;;;;;;5038111;28;20056;-77
2021/01/14 12:54:00;;;;;;;4.95;2.30;;;;;;;;;;5038299;28;20045;-77
2021/01/14 12:56:26;;;;;;;5.35;3.03;;;;;;;;;;5038289;28;20029;-76
2021/01/14 12:58:52;;;;;;;4.20;2.30;;;;;;;;;;5037943;28;20104;-76
2021/01/14 13:01:26;;;;;;;5.50;2.25;;;;;;;;;;5038175;28;20029;-77
2021/01/14 13:03:52;;;;;;;4.22;2.05;;;;;;;;;;5053260;28;20041;-77
2021/01/14 13:06:25;;;;;;;3.90;2.72;;;;;;;;;;5037819;28;20021;-78
2021/01/14 13:08:51;;;;;;;10.57;5.28;;;;;;;;;;5037717;28;20542;-76
2021/01/14 13:11:17;;;;;;;19.95;10.20;;;;;;;;;;5037777;28;20025;-77
2021/01/14 13:13:44;;;;;;;35.63;15.82;;;;;;;;;;5037688;28;20081;-77
2021/01/14 13:16:10;;;;;;;13.40;5.15;;;;;;;;;;5037752;28;20025;-77
2021/01/14 13:18:36;;;;;;;21.10;9.48;;;;;;;;;;5037299;28;20037;-76
2021/01/14 13:21:02;;;;;;;12.38;6.40;;;;;;;;;;5037456;28;20409;-77
2021/01/14 13:23:28;;;;;;;7.95;4.43;;;;;;;;;;5037722;28;20026;-77
2021/01/14 13:25:54;;;;;;;5.88;2.85;;;;;;;;;;5037165;28;20443;-76
2021/01/14 13:28:20;;;;;;;5.50;2.78;;;;;;;;;;5037174;28;20032;-76
2021/01/14 13:30:47;;;;;;;6.43;3.50;;;;;;;;;;5037558;28;20411;-77
2021/01/14 13:33:13;;;;;;;3.55;1.80;;;;;;;;;;5037530;28;20030;-78
2021/01/14 13:35:39;;;;;;;2.97;1.88;;;;;;;;;;5037509;28;20307;-77
2021/01/14 13:38:06;;;;;;;4.25;1.70;;;;;;;;;;5037465;28;20021;-78
2021/01/14 13:40:35;;;;;;;6.07;3.10;;;;;;;;;;5037378;28;20071;-77
2021/01/14 13:43:01;;;;;;;7.40;4.55;;;;;;;;;;5037268;28;20036;-79
2021/01/14 13:45:27;;;;;;;6.85;3.22;;;;;;;;;;5037378;28;20026;-78
2021/01/14 13:47:53;;;;;;;4.20;2.28;;;;;;;;;;5037137;28;20067;-77
2021/01/14 13:50:19;;;;;;;5.18;2.72;;;;;;;;;;5052747;28;20021;-79
2021/01/14 13:52:46;;;;;;;7.57;3.50;;;;;;;;;;5036871;28;20029;-78
2021/01/14 13:55:12;;;;;;;11.93;4.68;;;;;;;;;;5036996;28;20368;-78
2021/01/14 13:57:38;;;;;;;6.88;3.80;;;;;;;;;;5037115;28;20428;-78
2021/01/14 14:00:04;;;;;;;10.43;4.68;;;;;;;;;;5037082;28;20036;-78
2021/01/14 14:02:30;;;;;;;14.45;10.40;;;;;;;;;;5036066;28;20061;-78
2021/01/14 14:04:56;;;;;;;8.88;5.70;;;;;;;;;;5036996;28;20304;-78
2021/01/14 14:07:23;;;;;;;6.60;4.55;;;;;;;;;;5036972;28;20120;-77
2021/01/14 14:09:49;;;;;;;13.60;5.38;;;;;;;;;;5037095;28;20017;-79
2021/01/14 14:12:18;;;;;;;10.75;5.30;;;;;;;;;;5036834;28;20067;-79
2021/01/14 14:14:44;;;;;;;9.60;5.57;;;;;;;;;;5052095;28;20038;-79
2021/01/14 14:17:10;;;;;;;9.40;5.43;;;;;;;;;;5052348;28;20033;-78
2021/01/14 14:19:36;;;;;;;8.10;4.10;;;;;;;;;;5036547;28;20028;-78
2021/01/14 14:22:02;;;;;;;10.65;4.60;;;;;;;;;;5052430;28;20029;-78
2021/01/14 14:24:28;;;;;;;6.43;3.42;;;;;;;;;;5036443;28;20297;-79
2021/01/14 14:26:54;;;;;;;7.13;4.03;;;;;;;;;;5036776;28;20056;-80
2021/01/14 14:29:20;;;;;;;13.07;4.80;;;;;;;;;;5036789;28;20025;-78
2021/01/14 14:31:46;;;;;;;16.13;6.60;;;;;;;;;;5036899;28;20024;-80
2021/01/14 14:34:12;;;;;;;24.83;7.82;;;;;;;;;;5036711;28;20407;-79
2021/01/14 14:36:41;;;;;;;14.95;6.53;;;;;;;;;;5036674;28;20416;-79
2021/01/14 14:39:07;;;;;;;14.77;6.25;;;;;;;;;;5038207;28;20026;-78
2021/01/14 14:41:33;;;;;;;18.20;8.18;;;;;;;;;;5040649;28;20032;-80
2021/01/14 14:43:59;;;;;;;32.08;12.07;;;;;;;;;;5056211;28;20033;-78
2021/01/14 14:46:26;;;;;;;23.35;10.23;;;;;;;;;;5040194;28;20143;-80
2021/01/14 14:48:53;;;;;;;24.45;8.98;;;;;;;;;;5039004;28;20053;-80
2021/01/14 14:51:20;;;;;;;16.60;8.15;;;;;;;;;;5040311;28;20053;-77
2021/01/14 14:53:46;;;;;;;17.83;9.45;;;;;;;;;;5040091;28;20095;-79
2021/01/14 14:56:16;;;;;;;16.02;8.02;;;;;;;;;;5040362;28;20128;-81
2021/01/14 14:58:43;;;;;;;13.50;6.40;;;;;;;;;;5040483;28;20060;-80
2021/01/14 15:01:09;;;;;;;12.60;5.32;;;;;;;;;;5040328;28;20104;-79
2021/01/14 15:03:36;;;;;;;16.95;5.97;;;;;;;;;;5040111;28;20435;-81
2021/01/14 15:06:02;;;;;;;15.23;6.53;;;;;;;;;;5040106;28;20029;-81
2021/01/14 15:08:28;;;;;;;16.92;6.85;;;;;;;;;;5040192;28;20400;-79
2021/01/14 15:10:54;;;;;;;13.95;5.85;;;;;;;;;;5055162;28;20034;-80
2021/01/14 15:13:21;;;;;;;14.95;6.63;;;;;;;;;;5040103;28;20396;-80
2021/01/14 15:15:47;;;;;;;14.52;6.97;;;;;;;;;;5040112;28;20037;-81
2021/01/14 15:18:13;;;;;;;16.63;6.88;;;;;;;;;;5039693;28;20408;-80
2021/01/14 15:20:40;;;;;;;14.82;7.57;;;;;;;;;;5040128;28;20057;-79
2021/01/14 15:23:06;;;;;;;12.35;6.25;;;;;;;;;;5039790;28;20486;-80
2021/01/14 15:25:32;;;;;;;9.57;4.28;;;;;;;;;;5039627;28;20056;-80